createdAt,value
2022-08-18T00:00:52.774Z,44.47
2022-08-18T00:01:52.853Z,46.78
2022-08-18T00:02:58.078Z,43.60
2022-08-18T00:03:59.369Z,48.03
2022-08-18T00:04:57.053Z,43.86
2022-08-18T00:05:52.736Z,44.01
2022-08-18T00:06:52.728Z,44.29
2022-08-18T00:07:52.724Z,52.47
2022-08-18T00:08:52.971Z,49.29
2022-08-18T00:09:52.714Z,43.84
2022-08-18T00:10:52.705Z,51.08
2022-08-18T00:11:52.691Z,52.97
2022-08-18T00:12:56.156Z,43.85
2022-08-18T00:13:53.749Z,50.16
2022-08-18T00:14:52.660Z,54.90
2022-08-18T00:15:52.650Z,48.81
2022-08-18T00:16:52.746Z,48.49
2022-08-18T00:17:52.663Z,47.20
2022-08-18T00:18:52.640Z,55.08
2022-08-18T00:19:52.653Z,44.46
2022-08-18T00:20:52.630Z,57.73
2022-08-18T00:21:52.628Z,51.13
2022-08-18T00:22:52.799Z,53.02
2022-08-18T00:23:52.599Z,52.59
2022-08-18T00:24:52.622Z,49.91
2022-08-18T00:25:52.604Z,43.99
2022-08-18T00:26:52.590Z,59.79
2022-08-18T00:27:52.561Z,49.41
2022-08-18T00:28:52.554Z,51.97
2022-08-18T00:29:52.572Z,47.26
2022-08-18T00:30:53.935Z,49.22
2022-08-18T00:31:52.545Z,43.70
2022-08-18T00:32:52.666Z,49.81
2022-08-18T00:33:52.538Z,56.60
2022-08-18T00:34:52.542Z,49.48
2022-08-18T00:35:52.518Z,43.53
2022-08-18T00:36:52.502Z,51.48
2022-08-18T00:37:52.738Z,43.90
2022-08-18T00:38:52.501Z,56.06
2022-08-18T00:39:52.575Z,60.53
2022-08-18T00:40:52.473Z,47.55
2022-08-18T00:41:52.507Z,50.63
2022-08-18T00:42:52.832Z,48.05
2022-08-18T00:43:52.470Z,43.60
2022-08-18T00:44:52.453Z,54.27
2022-08-18T00:45:52.468Z,44.19
2022-08-18T00:46:52.423Z,49.50
2022-08-18T00:47:52.635Z,44.10
2022-08-18T00:48:52.413Z,43.95
2022-08-18T00:49:52.434Z,44.97
2022-08-18T00:50:52.414Z,50.03
2022-08-18T00:51:52.448Z,50.27
2022-08-18T00:52:52.386Z,55.59
2022-08-18T00:53:52.383Z,44.68
2022-08-18T00:54:52.381Z,46.70
2022-08-18T00:55:53.733Z,57.45
2022-08-18T00:56:52.380Z,48.58
2022-08-18T00:57:52.595Z,46.01
2022-08-18T00:58:52.347Z,54.91
2022-08-18T00:59:52.396Z,53.03
2022-08-18T01:00:52.379Z,45.58
2022-08-18T01:01:52.337Z,50.54
2022-08-18T01:02:52.332Z,48.93
2022-08-18T01:03:52.341Z,44.68
2022-08-18T01:04:52.301Z,51.62
2022-08-18T01:05:52.294Z,52.69
2022-08-18T01:06:52.274Z,44.88
2022-08-18T01:07:52.457Z,44.62
2022-08-18T01:08:52.299Z,45.37
2022-08-18T01:09:52.278Z,44.52
2022-08-18T01:10:52.261Z,44.30
2022-08-18T01:11:52.241Z,44.06
2022-08-18T01:12:52.259Z,53.83
2022-08-18T01:13:52.266Z,44.43
2022-08-18T01:14:52.225Z,59.65
2022-08-18T01:15:52.247Z,54.77
2022-08-18T01:16:57.594Z,45.26
2022-08-18T01:17:53.289Z,44.39
2022-08-18T01:18:52.210Z,49.58
2022-08-18T01:19:52.194Z,43.57
2022-08-18T01:20:52.204Z,46.49
2022-08-18T01:21:52.335Z,47.68
2022-08-18T01:22:52.172Z,53.11
2022-08-18T01:23:52.197Z,49.74
2022-08-18T01:24:52.167Z,51.68
2022-08-18T01:25:52.163Z,43.58
2022-08-18T01:26:52.172Z,49.40
2022-08-18T01:27:52.390Z,48.77
2022-08-18T01:28:52.111Z,46.78
2022-08-18T01:29:52.115Z,44.54
2022-08-18T01:30:52.115Z,43.58
2022-08-18T01:31:54.396Z,44.45
2022-08-18T01:32:52.125Z,43.70
2022-08-18T01:33:52.083Z,43.85
2022-08-18T01:34:52.110Z,44.57
2022-08-18T01:35:52.067Z,47.53
2022-08-18T01:36:52.066Z,45.41
2022-08-18T01:37:52.286Z,44.10
2022-08-18T01:38:52.063Z,50.48
2022-08-18T01:41:17.332Z,45.83
2022-08-18T01:41:24.228Z,48.84
2022-08-18T01:41:53.042Z,53.64
2022-08-18T01:42:52.052Z,56.72
2022-08-18T01:43:52.024Z,45.58
2022-08-18T01:44:52.021Z,45.21
2022-08-18T02:03:35.696Z,50.96
2022-08-18T02:04:37.240Z,52.61
2022-08-18T02:05:35.667Z,49.27
2022-08-18T02:06:35.664Z,45.58
2022-08-18T02:07:36.422Z,47.89
2022-08-18T02:08:35.687Z,53.25
2022-08-18T02:09:36.842Z,50.20
2022-08-18T02:10:37.737Z,49.81
2022-08-18T02:11:36.861Z,48.41
2022-08-18T02:12:36.858Z,51.39
2022-08-18T02:13:36.834Z,50.58
2022-08-18T02:14:37.863Z,47.70
2022-08-18T02:15:36.825Z,49.57
2022-08-18T02:16:36.816Z,44.10
2022-08-18T02:17:36.780Z,47.56
2022-08-18T02:18:48.138Z,56.25
2022-08-18T02:19:37.729Z,46.44
2022-08-18T02:20:37.740Z,48.31
2022-08-18T02:21:36.741Z,43.99
2022-08-18T02:22:36.786Z,44.21
2022-08-18T02:23:36.758Z,43.83
2022-08-18T02:25:08.584Z,43.86
2022-08-18T02:25:36.636Z,44.84
2022-08-18T02:26:36.631Z,53.24
2022-08-18T02:27:36.724Z,43.84
2022-08-18T02:28:36.604Z,44.37
2022-08-18T02:29:36.606Z,49.33
2022-08-18T02:30:36.609Z,45.80
2022-08-18T02:31:36.571Z,47.23
2022-08-18T02:32:36.588Z,48.18
2022-08-18T02:33:36.581Z,44.31
2022-08-18T02:34:36.582Z,48.54
2022-08-18T02:35:36.574Z,56.03
2022-08-18T02:36:36.543Z,50.17
2022-08-18T02:37:36.540Z,43.99
2022-08-18T02:38:36.565Z,44.99
2022-08-18T02:39:36.573Z,51.92
2022-08-18T02:40:36.536Z,54.07
2022-08-18T02:41:36.592Z,44.58
2022-08-18T02:42:36.592Z,51.19
2022-08-18T02:43:37.809Z,53.25
2022-08-18T02:44:37.545Z,54.41
2022-08-18T02:45:36.486Z,50.01
2022-08-18T02:46:36.471Z,52.56
2022-08-18T02:47:36.517Z,59.25
2022-08-18T02:48:36.460Z,57.73
2022-08-18T02:49:36.452Z,55.12
2022-08-18T02:50:36.460Z,52.60
2022-08-18T02:51:36.435Z,53.55
2022-08-18T02:52:36.446Z,54.14
2022-08-18T02:53:36.444Z,49.95
2022-08-18T02:54:36.413Z,50.49
2022-08-18T02:55:36.411Z,53.85
2022-08-18T02:56:41.320Z,51.86
2022-08-18T02:57:37.388Z,45.48
2022-08-18T02:58:36.403Z,57.40
2022-08-18T02:59:36.377Z,60.05
2022-08-18T03:00:36.382Z,49.08
2022-08-18T03:01:36.412Z,45.81
2022-08-18T03:02:36.358Z,55.27
2022-08-18T03:03:36.347Z,48.69
2022-08-18T03:04:36.359Z,55.04
2022-08-18T03:05:36.404Z,61.37
2022-08-18T03:06:36.321Z,49.81
2022-08-18T03:07:36.397Z,57.59
2022-08-18T03:08:36.318Z,58.37
2022-08-18T03:09:36.389Z,54.09
2022-08-18T03:10:36.316Z,58.99
2022-08-18T03:11:36.296Z,50.59
2022-08-18T03:12:36.276Z,61.77
2022-08-18T03:13:36.264Z,59.47
2022-08-18T03:14:36.278Z,53.62
2022-08-18T03:15:36.285Z,54.25
2022-08-18T03:16:36.240Z,59.17
2022-08-18T03:17:36.268Z,49.88
2022-08-18T03:18:36.245Z,58.87
2022-08-18T03:19:36.241Z,55.05
2022-08-18T03:20:36.216Z,50.61
2022-08-18T03:21:36.209Z,51.92
2022-08-18T03:22:36.204Z,67.45
2022-08-18T03:23:36.199Z,69.77
2022-08-18T03:24:36.203Z,59.56
2022-08-18T03:25:36.912Z,58.09
2022-08-18T03:26:36.170Z,56.33
2022-08-18T03:27:36.158Z,56.14
2022-08-18T03:28:36.180Z,53.30
2022-08-18T03:29:36.770Z,57.35
2022-08-18T03:30:36.168Z,63.83
2022-08-18T03:31:36.153Z,60.10
2022-08-18T03:32:36.127Z,63.67
2022-08-18T03:33:36.123Z,66.36
2022-08-18T03:34:36.108Z,60.60
2022-08-18T03:35:36.113Z,58.84
2022-08-18T03:36:36.105Z,65.62
2022-08-18T03:37:36.119Z,62.81
2022-08-18T03:38:36.079Z,59.37
2022-08-18T03:39:36.096Z,56.63
2022-08-18T03:40:36.096Z,55.36
2022-08-18T03:41:56.943Z,65.67
2022-08-18T03:42:37.890Z,67.43
2022-08-18T03:43:51.049Z,57.39
2022-08-18T03:44:37.039Z,63.38
2022-08-18T03:45:36.051Z,66.06
2022-08-18T03:46:36.027Z,61.53
2022-08-18T04:03:02.932Z,61.33
2022-08-18T04:04:02.918Z,60.30
2022-08-18T04:05:05.197Z,44.95
2022-08-18T04:06:04.094Z,65.58
2022-08-18T04:07:04.035Z,57.65
2022-08-18T04:08:04.036Z,65.45
2022-08-18T04:09:04.002Z,67.17
2022-08-18T04:10:04.002Z,61.84
2022-08-18T04:11:04.022Z,67.86
2022-08-18T04:12:04.001Z,62.54
2022-08-18T04:13:04.005Z,59.66
2022-08-18T04:14:03.965Z,61.92
2022-08-18T04:15:03.961Z,62.85
2022-08-18T04:16:03.957Z,63.93
2022-08-18T04:17:03.981Z,62.81
2022-08-18T04:18:04.392Z,58.65
2022-08-18T04:19:03.997Z,61.36
2022-08-18T04:20:03.917Z,63.49
2022-08-18T04:21:03.932Z,58.89
2022-08-18T04:22:03.921Z,60.55
2022-08-18T04:23:03.890Z,61.11
2022-08-18T04:24:03.881Z,65.72
2022-08-18T04:25:03.902Z,64.57
2022-08-18T04:26:03.882Z,64.63
2022-08-18T04:27:03.864Z,64.85
2022-08-18T04:28:03.879Z,64.57
2022-08-18T04:29:03.870Z,63.44
2022-08-18T04:30:04.573Z,60.76
2022-08-18T04:31:03.836Z,56.18
2022-08-18T04:32:04.842Z,68.96
2022-08-18T04:33:03.838Z,66.73
2022-08-18T04:34:03.846Z,64.60
2022-08-18T04:35:03.825Z,67.42
2022-08-18T04:36:03.800Z,65.09
2022-08-18T04:37:03.790Z,64.80
2022-08-18T04:38:03.790Z,59.72
2022-08-18T04:39:03.800Z,70.16
2022-08-18T04:40:03.822Z,72.74
2022-08-18T04:41:03.762Z,68.33
2022-08-18T04:42:03.757Z,67.44
2022-08-18T04:43:03.741Z,68.92
2022-08-18T04:44:03.734Z,64.02
2022-08-18T04:45:03.778Z,68.89
2022-08-18T04:46:03.735Z,68.28
2022-08-18T04:47:03.717Z,72.11
2022-08-18T04:48:03.710Z,67.98
2022-08-18T04:49:03.700Z,64.80
2022-08-18T04:50:03.726Z,56.80
2022-08-18T04:51:03.691Z,67.71
2022-08-18T04:52:34.278Z,68.46
2022-08-18T04:53:04.686Z,64.48
2022-08-18T04:54:03.657Z,67.60
2022-08-18T04:55:03.665Z,64.18
2022-08-18T04:56:03.656Z,66.92
2022-08-18T04:57:03.638Z,60.31
2022-08-18T04:58:03.699Z,69.84
2022-08-18T04:59:03.633Z,63.63
2022-08-18T05:00:04.575Z,58.95
2022-08-18T05:01:03.648Z,67.57
2022-08-18T05:02:03.632Z,65.04
2022-08-18T05:03:03.602Z,63.71
2022-08-18T05:04:03.593Z,69.13
2022-08-18T05:05:03.623Z,67.07
2022-08-18T05:06:03.583Z,63.86
2022-08-18T05:07:03.591Z,64.40
2022-08-18T05:08:03.565Z,67.96
2022-08-18T05:09:03.546Z,59.87
2022-08-18T05:10:04.554Z,53.35
2022-08-18T05:11:04.229Z,58.42
2022-08-18T05:12:04.537Z,66.21
2022-08-18T05:13:03.516Z,61.67
2022-08-18T05:14:03.536Z,67.59
2022-08-18T05:15:03.810Z,65.26
2022-08-18T05:16:18.205Z,67.66
2022-08-18T05:17:05.515Z,67.00
2022-08-18T05:18:03.502Z,68.08
2022-08-18T05:19:03.501Z,66.64
2022-08-18T05:20:03.462Z,65.39
2022-08-18T05:21:03.458Z,70.44
2022-08-18T05:22:03.478Z,66.87
2022-08-18T05:23:03.462Z,58.79
2022-08-18T05:24:03.439Z,71.67
2022-08-18T05:25:03.423Z,64.32
2022-08-18T05:26:03.431Z,68.45
2022-08-18T05:27:03.441Z,59.92
2022-08-18T05:28:03.418Z,66.13
2022-08-18T05:29:17.596Z,64.51
2022-08-18T05:30:04.416Z,62.74
2022-08-18T05:31:03.390Z,57.39
2022-08-18T05:32:03.393Z,60.67
2022-08-18T05:33:03.411Z,61.87
2022-08-18T05:34:04.174Z,66.30
2022-08-18T05:35:03.408Z,66.62
2022-08-18T05:36:03.397Z,65.65
2022-08-18T05:37:03.322Z,65.80
2022-08-18T05:38:04.344Z,67.24
2022-08-18T05:39:03.335Z,64.12
2022-08-18T05:40:07.478Z,65.79
2022-08-18T05:41:05.302Z,63.46
2022-08-18T05:42:03.391Z,66.69
2022-08-18T05:43:03.292Z,65.10
2022-08-18T05:44:03.285Z,65.77
2022-08-18T05:45:03.315Z,58.54
2022-08-18T05:46:03.303Z,65.75
2022-08-18T05:47:03.261Z,60.67
2022-08-18T05:48:03.260Z,65.32
2022-08-18T05:49:03.262Z,69.05
2022-08-18T05:50:03.251Z,64.04
2022-08-18T05:51:04.158Z,54.27
2022-08-18T05:52:03.227Z,68.58
2022-08-18T05:53:03.229Z,69.44
2022-08-18T05:54:03.231Z,69.19
2022-08-18T05:55:03.228Z,70.84
2022-08-18T05:56:03.207Z,62.90
2022-08-18T05:57:03.178Z,66.65
2022-08-18T05:58:03.201Z,65.46
2022-08-18T05:59:03.269Z,71.01
2022-08-18T06:00:03.261Z,64.50
2022-08-18T06:01:03.174Z,61.34
2022-08-18T06:02:03.145Z,59.37
2022-08-18T06:03:03.188Z,65.00
2022-08-18T06:04:03.141Z,67.36
2022-08-18T06:05:03.123Z,66.17
2022-08-18T06:06:03.113Z,56.51
2022-08-18T06:07:03.140Z,60.69
2022-08-18T06:08:03.103Z,64.21
2022-08-18T06:09:03.153Z,65.77
2022-08-18T06:10:03.093Z,59.62
2022-08-18T06:11:03.086Z,62.43
2022-08-18T06:12:03.090Z,60.12
2022-08-18T06:13:03.094Z,63.62
2022-08-18T06:14:03.077Z,65.77
2022-08-18T06:15:05.980Z,66.94
2022-08-18T06:16:03.051Z,65.53
2022-08-18T06:17:03.053Z,63.81
2022-08-18T06:18:03.681Z,63.13
2022-08-18T06:19:03.060Z,67.04
2022-08-18T06:20:03.035Z,66.63
2022-08-18T06:21:03.014Z,62.48
2022-08-18T06:22:03.012Z,65.83
2022-08-18T06:23:03.030Z,61.88
2022-08-18T06:24:03.006Z,65.24
2022-08-18T06:25:03.005Z,65.62
2022-08-18T06:26:02.991Z,65.45
2022-08-18T06:27:03.986Z,68.22
2022-08-18T06:28:02.977Z,65.68
2022-08-18T06:29:03.025Z,69.74
2022-08-18T06:30:02.963Z,65.36
2022-08-18T06:31:02.935Z,69.63
2022-08-18T06:32:02.967Z,60.77
2022-08-18T06:33:02.907Z,67.82
2022-08-18T06:34:02.918Z,53.90
2022-08-18T06:35:02.907Z,65.23
2022-08-18T06:36:02.884Z,57.06
2022-08-18T06:37:02.880Z,69.46
2022-08-18T06:38:02.883Z,69.63
2022-08-18T06:39:02.951Z,66.17
2022-08-18T06:40:02.932Z,64.09
2022-08-18T06:41:02.846Z,61.39
2022-08-18T06:42:02.849Z,66.94
2022-08-18T06:43:02.857Z,64.90
2022-08-18T06:44:02.850Z,61.88
2022-08-18T06:45:02.927Z,66.06
2022-08-18T06:46:02.833Z,69.58
2022-08-18T06:47:02.804Z,65.62
2022-08-18T06:48:02.821Z,61.53
2022-08-18T06:49:02.807Z,66.20
2022-08-18T06:50:02.804Z,68.44
2022-08-18T06:51:02.781Z,64.55
2022-08-18T06:52:02.787Z,67.29
2022-08-18T06:53:02.784Z,65.85
2022-08-18T06:54:02.758Z,65.86
2022-08-18T06:55:02.767Z,64.94
2022-08-18T06:56:02.778Z,67.54
2022-08-18T06:57:02.748Z,66.51
2022-08-18T06:58:02.722Z,56.21
2022-08-18T06:59:02.726Z,57.29
2022-08-18T07:00:02.744Z,68.25
2022-08-18T07:01:02.843Z,63.94
2022-08-18T07:02:02.719Z,73.54
2022-08-18T07:03:02.689Z,61.97
2022-08-18T07:04:02.699Z,64.28
2022-08-18T07:05:02.684Z,60.81
2022-08-18T07:06:02.686Z,61.54
2022-08-18T07:07:02.672Z,56.91
2022-08-18T07:08:02.648Z,54.03
2022-08-18T07:09:02.642Z,67.82
2022-08-18T07:10:03.650Z,61.24
2022-08-18T07:11:02.650Z,64.29
2022-08-18T07:12:02.639Z,60.05
2022-08-18T07:13:02.613Z,61.87
2022-08-18T07:14:16.195Z,70.75
2022-08-18T07:15:04.636Z,60.39
2022-08-18T07:16:02.603Z,62.36
2022-08-18T07:17:02.607Z,72.05
2022-08-18T07:18:02.582Z,65.28
2022-08-18T07:19:02.605Z,60.90
2022-08-18T07:20:02.594Z,67.82
2022-08-18T07:21:02.587Z,66.57
2022-08-18T07:22:02.544Z,67.92
2022-08-18T07:23:02.575Z,64.04
2022-08-18T07:24:23.731Z,62.76
2022-08-18T07:25:05.537Z,66.61
2022-08-18T07:26:03.527Z,69.47
2022-08-18T07:27:02.539Z,66.65
2022-08-18T07:28:02.518Z,64.09
2022-08-18T07:29:02.517Z,64.85
2022-08-18T07:30:02.491Z,65.07
2022-08-18T07:31:16.507Z,68.24
2022-08-18T07:32:04.481Z,65.70
2022-08-18T07:33:02.486Z,66.57
2022-08-18T07:34:02.474Z,64.95
2022-08-18T07:35:02.460Z,64.35
2022-08-18T07:36:02.445Z,68.08
2022-08-18T07:37:02.450Z,61.41
2022-08-18T07:38:18.671Z,64.33
2022-08-18T07:39:04.436Z,67.79
2022-08-18T07:40:02.563Z,67.70
2022-08-18T07:41:03.203Z,67.84
2022-08-18T07:42:02.569Z,65.10
2022-08-18T07:43:02.608Z,65.12
2022-08-18T07:44:03.385Z,64.26
2022-08-18T07:45:02.423Z,66.23
2022-08-18T07:46:02.450Z,66.29
2022-08-18T07:47:02.379Z,69.40
2022-08-18T07:48:20.834Z,63.92
2022-08-18T07:49:05.634Z,66.92
2022-08-18T07:50:36.374Z,66.22
2022-08-18T07:51:08.596Z,64.48
2022-08-18T07:52:03.363Z,52.20
2022-08-18T07:53:02.357Z,56.42
2022-08-18T07:54:02.333Z,65.09
2022-08-18T07:55:02.326Z,67.17
2022-08-18T07:56:02.339Z,65.02
2022-08-18T07:57:02.413Z,64.50
2022-08-18T07:58:02.283Z,61.44
2022-08-18T07:59:02.297Z,63.65
2022-08-18T08:00:02.277Z,67.58
2022-08-18T08:01:02.274Z,64.40
2022-08-18T08:02:02.348Z,56.53
2022-08-18T08:03:02.266Z,67.80
2022-08-18T08:04:02.251Z,67.47
2022-08-18T08:05:02.231Z,67.32
2022-08-18T08:06:02.245Z,67.53
2022-08-18T08:07:23.448Z,67.31
2022-08-18T08:08:04.217Z,67.89
2022-08-18T08:09:02.223Z,63.30
2022-08-18T08:10:02.193Z,56.70
2022-08-18T08:11:02.185Z,67.82
2022-08-18T08:12:02.185Z,66.36
2022-08-18T08:13:09.190Z,65.02
2022-08-18T08:14:04.169Z,62.64
2022-08-18T08:15:02.153Z,63.05
2022-08-18T08:16:02.146Z,65.30
2022-08-18T08:17:02.172Z,62.04
2022-08-18T08:18:02.158Z,65.31
2022-08-18T08:19:02.132Z,67.57
2022-08-18T08:20:03.137Z,54.43
2022-08-18T08:21:02.142Z,67.19
2022-08-18T08:22:02.117Z,69.57
2022-08-18T08:23:02.140Z,67.75
2022-08-18T08:24:02.142Z,58.28
2022-08-18T08:25:47.763Z,63.37
2022-08-18T08:26:03.103Z,53.73
2022-08-18T08:27:02.090Z,62.34
2022-08-18T08:28:02.079Z,63.98
2022-08-18T08:29:02.161Z,61.97
2022-08-18T08:30:02.698Z,70.21
2022-08-18T08:31:25.629Z,65.78
2022-08-18T08:32:04.755Z,62.53
2022-08-18T08:33:02.027Z,72.68
2022-08-18T08:34:05.829Z,67.97
2022-08-18T08:35:03.682Z,64.57
2022-08-18T08:36:02.011Z,66.62
2022-08-18T08:37:01.998Z,68.18
2022-08-18T08:38:17.152Z,69.69
2022-08-18T08:39:03.982Z,69.39
2022-08-18T08:40:02.123Z,66.06
2022-08-18T08:41:01.987Z,68.52
2022-08-18T08:42:30.319Z,64.39
2022-08-18T08:43:02.942Z,61.70
2022-08-18T08:44:01.946Z,68.51
2022-08-18T08:45:01.937Z,65.55
2022-08-18T08:46:02.021Z,68.42
2022-08-18T08:47:01.911Z,68.98
2022-08-18T08:48:08.804Z,66.61
2022-08-18T08:49:03.917Z,65.31
2022-08-18T08:50:01.905Z,71.76
2022-08-18T08:51:01.899Z,67.30
2022-08-18T08:52:01.895Z,65.45
2022-08-18T08:53:01.913Z,66.40
2022-08-18T08:54:01.893Z,65.92
2022-08-18T08:55:01.865Z,69.48
2022-08-18T08:56:02.789Z,67.55
2022-08-18T08:57:02.885Z,71.46
2022-08-18T08:58:01.879Z,70.77
2022-08-18T08:59:01.836Z,65.12
2022-08-18T09:00:01.820Z,63.31
2022-08-18T09:01:01.836Z,66.66
2022-08-18T09:02:01.889Z,63.06
2022-08-18T09:03:01.831Z,67.68
2022-08-18T09:04:01.840Z,74.30
2022-08-18T09:05:08.249Z,67.14
2022-08-18T09:06:02.842Z,70.53
2022-08-18T09:07:01.770Z,72.68
2022-08-18T09:08:01.765Z,61.13
2022-08-18T09:09:01.774Z,70.44
2022-08-18T09:10:01.784Z,68.87
2022-08-18T09:11:01.758Z,68.65
2022-08-18T09:12:01.930Z,70.60
2022-08-18T09:13:01.728Z,69.31
2022-08-18T09:14:01.751Z,68.66
2022-08-18T09:15:01.714Z,68.88
2022-08-18T09:16:01.756Z,68.20
2022-08-18T09:17:02.725Z,68.58
2022-08-18T09:18:01.708Z,74.97
2022-08-18T09:19:01.701Z,73.46
2022-08-18T09:20:01.709Z,69.72
2022-08-18T09:21:01.677Z,67.82
2022-08-18T09:22:01.698Z,69.56
2022-08-18T09:23:01.719Z,68.05
2022-08-18T09:24:01.656Z,74.29
2022-08-18T09:25:01.695Z,68.93
2022-08-18T09:26:01.678Z,74.17
2022-08-18T09:27:01.624Z,68.62
2022-08-18T09:28:14.800Z,72.90
2022-08-18T09:29:03.626Z,72.89
2022-08-18T09:30:01.624Z,65.38
2022-08-18T09:31:01.606Z,72.92
2022-08-18T09:32:01.631Z,70.31
2022-08-18T09:33:01.578Z,67.08
2022-08-18T09:34:06.676Z,71.68
2022-08-18T09:35:05.430Z,73.87
2022-08-18T09:36:01.621Z,66.80
2022-08-18T09:37:01.591Z,72.56
2022-08-18T09:38:01.534Z,73.77
2022-08-18T09:39:01.569Z,70.33
2022-08-18T09:40:11.271Z,73.34
2022-08-18T09:41:03.533Z,75.51
2022-08-18T09:43:02.782Z,73.29
2022-08-18T09:44:02.541Z,70.33
2022-08-18T09:45:01.532Z,71.17
2022-08-18T09:46:01.512Z,73.89
2022-08-18T09:47:01.538Z,68.72
2022-08-18T09:48:01.507Z,73.12
2022-08-18T09:49:01.472Z,69.55
2022-08-18T09:50:02.454Z,65.15
2022-08-18T09:51:01.498Z,70.51
2022-08-18T09:52:02.248Z,71.52
2022-08-18T09:53:04.397Z,70.95
2022-08-18T09:54:01.451Z,66.80
2022-08-18T09:55:01.469Z,68.75
2022-08-18T09:56:04.963Z,72.45
2022-08-18T09:57:02.501Z,67.39
2022-08-18T09:58:01.417Z,70.48
2022-08-18T09:59:01.384Z,67.31
2022-08-18T10:00:01.402Z,72.43
2022-08-18T10:01:01.460Z,73.20
2022-08-18T10:02:02.385Z,69.83
2022-08-18T10:03:01.350Z,70.89
2022-08-18T10:04:01.359Z,68.86
2022-08-18T10:05:01.375Z,72.25
2022-08-18T10:06:01.332Z,71.89
2022-08-18T10:07:01.333Z,66.56
2022-08-18T10:08:01.326Z,67.60
2022-08-18T10:09:01.311Z,72.06
2022-08-18T10:10:01.347Z,73.37
2022-08-18T10:11:08.976Z,65.92
2022-08-18T10:12:03.303Z,71.06
2022-08-18T10:13:01.278Z,69.34
2022-08-18T10:14:01.309Z,71.15
2022-08-18T10:15:01.319Z,72.52
2022-08-18T10:16:11.242Z,73.07
2022-08-18T10:17:23.580Z,70.84
2022-08-18T10:18:03.260Z,71.15
2022-08-18T10:19:01.282Z,71.12
2022-08-18T10:20:01.243Z,67.09
2022-08-18T10:21:01.235Z,73.75
2022-08-18T10:22:01.230Z,73.66
2022-08-18T10:23:01.290Z,67.36
2022-08-18T10:24:32.050Z,72.21
2022-08-18T10:25:21.302Z,69.70
2022-08-18T10:26:05.133Z,63.30
2022-08-18T10:27:03.219Z,71.48
2022-08-18T10:28:01.215Z,70.55
2022-08-18T10:29:01.233Z,72.79
2022-08-18T10:30:01.167Z,68.67
2022-08-18T10:31:06.256Z,72.16
2022-08-18T10:32:02.154Z,71.36
2022-08-18T10:33:05.009Z,68.70
2022-08-18T10:34:05.491Z,69.30
2022-08-18T10:35:02.194Z,72.82
2022-08-18T10:36:03.060Z,70.31
2022-08-18T10:37:01.122Z,70.50
2022-08-18T10:38:01.109Z,72.00
2022-08-18T10:39:01.111Z,63.77
2022-08-18T10:41:07.459Z,64.34
2022-08-18T10:42:02.080Z,71.27
2022-08-18T10:43:05.046Z,68.03
2022-08-18T10:44:04.968Z,70.49
2022-08-18T10:45:02.807Z,69.87
2022-08-18T10:47:03.064Z,66.91
2022-08-18T10:48:02.040Z,69.83
2022-08-18T10:49:01.029Z,65.16
2022-08-18T10:50:01.031Z,70.25
2022-08-18T10:51:01.019Z,72.55
2022-08-18T10:52:01.410Z,67.45
2022-08-18T10:53:24.165Z,70.41
2022-08-18T10:54:02.976Z,70.07
2022-08-18T10:55:00.965Z,69.71
2022-08-18T10:56:01.148Z,70.81
2022-08-18T10:57:00.990Z,70.26
2022-08-18T10:58:00.961Z,71.88
2022-08-18T10:59:00.959Z,60.08
2022-08-18T11:00:00.932Z,70.02
2022-08-18T11:01:00.919Z,64.32
2022-08-18T11:02:00.926Z,69.89
2022-08-18T11:03:08.067Z,71.17
2022-08-18T11:05:01.916Z,72.17
2022-08-18T11:06:00.902Z,70.50
2022-08-18T11:07:00.902Z,68.12
2022-08-18T11:08:00.874Z,68.52
2022-08-18T11:09:00.852Z,72.01
2022-08-18T11:10:28.336Z,70.89
2022-08-18T11:11:32.575Z,71.39
2022-08-18T11:12:02.881Z,67.80
2022-08-18T11:13:04.427Z,61.19
2022-08-18T11:14:01.822Z,65.64
2022-08-18T11:15:00.802Z,67.11
2022-08-18T11:16:01.801Z,70.36
2022-08-18T11:17:00.803Z,70.84
2022-08-18T11:18:00.786Z,68.83
2022-08-18T11:19:00.794Z,68.83
2022-08-18T11:20:00.790Z,69.33
2022-08-18T11:21:00.767Z,69.78
2022-08-18T11:22:00.870Z,70.33
2022-08-18T11:23:00.755Z,70.46
2022-08-18T11:24:01.766Z,65.97
2022-08-18T11:25:00.754Z,69.83
2022-08-18T11:26:00.721Z,68.56
2022-08-18T11:27:00.764Z,63.14
2022-08-18T11:28:00.789Z,68.27
2022-08-18T11:29:00.737Z,68.34
2022-08-18T11:30:00.733Z,69.37
2022-08-18T11:31:00.705Z,71.82
2022-08-18T11:32:01.954Z,71.60
2022-08-18T11:33:02.637Z,71.58
2022-08-18T11:34:00.735Z,71.55
2022-08-18T11:35:00.703Z,67.02
2022-08-18T11:36:01.453Z,58.41
2022-08-18T11:37:00.644Z,69.64
2022-08-18T11:38:00.665Z,68.46
2022-08-18T11:39:00.656Z,70.64
2022-08-18T11:40:00.791Z,68.52
2022-08-18T11:41:09.609Z,70.74
2022-08-18T11:42:02.704Z,68.10
2022-08-18T11:43:00.596Z,67.73
2022-08-18T11:44:00.613Z,66.46
2022-08-18T11:45:00.631Z,66.09
2022-08-18T11:46:00.578Z,65.78
2022-08-18T11:47:00.587Z,67.32
2022-08-18T11:48:00.562Z,65.46
2022-08-18T11:49:00.903Z,66.69
2022-08-18T11:51:01.553Z,72.59
2022-08-18T11:52:02.179Z,72.03
2022-08-18T11:53:00.568Z,70.28
2022-08-18T11:54:00.732Z,62.06
2022-08-18T11:55:00.537Z,60.32
2022-08-18T11:56:00.522Z,68.00
2022-08-18T11:57:00.492Z,61.48
2022-08-18T11:58:00.595Z,68.30
2022-08-18T11:59:00.505Z,73.17
2022-08-18T12:00:01.219Z,68.48
2022-08-18T12:01:03.222Z,67.51
2022-08-18T12:02:00.424Z,62.70
2022-08-18T12:03:00.429Z,68.55
2022-08-18T12:04:00.536Z,68.59
2022-08-18T12:05:02.862Z,66.80
2022-08-18T12:06:00.479Z,66.27
2022-08-18T12:07:00.410Z,69.52
2022-08-18T12:08:01.845Z,68.03
2022-08-18T12:09:01.441Z,66.60
2022-08-18T12:10:17.837Z,71.62
2022-08-18T12:11:02.377Z,69.94
2022-08-18T12:12:01.371Z,71.25
2022-08-18T12:13:01.149Z,65.85
2022-08-18T12:14:00.378Z,64.16
2022-08-18T12:15:13.977Z,66.61
2022-08-18T12:16:02.338Z,67.16
2022-08-18T12:17:01.504Z,68.25
2022-08-18T12:18:00.375Z,71.25
2022-08-18T12:19:00.320Z,65.01
2022-08-18T12:20:00.299Z,70.92
2022-08-18T12:22:01.604Z,68.05
2022-08-18T12:23:00.402Z,66.26
2022-08-18T12:24:00.298Z,65.23
2022-08-18T12:25:01.267Z,66.63
2022-08-18T12:26:00.350Z,69.17
2022-08-18T12:27:00.982Z,63.94
2022-08-18T12:28:00.254Z,67.75
2022-08-18T12:29:01.498Z,69.67
2022-08-18T12:30:00.234Z,68.88
2022-08-18T12:31:00.208Z,68.18
2022-08-18T12:32:00.223Z,68.60
2022-08-18T12:33:10.253Z,64.68
2022-08-18T12:34:01.493Z,65.82
2022-08-18T12:35:05.389Z,69.07
2022-08-18T12:36:02.177Z,72.31
2022-08-18T12:37:00.196Z,67.01
2022-08-18T12:38:04.995Z,70.67
2022-08-18T12:39:02.180Z,68.47
2022-08-18T12:40:00.239Z,69.06
2022-08-18T12:41:00.160Z,70.43
2022-08-18T12:42:00.174Z,69.24
2022-08-18T12:43:00.123Z,67.66
2022-08-18T12:44:00.123Z,66.38
2022-08-18T12:45:00.134Z,67.84
2022-08-18T12:46:00.111Z,70.64
2022-08-18T12:47:00.105Z,68.02
2022-08-18T12:48:00.114Z,67.84
2022-08-18T12:49:00.086Z,69.63
2022-08-18T12:50:00.070Z,68.23
2022-08-18T12:51:00.951Z,66.69
2022-08-18T12:52:03.383Z,70.56
2022-08-18T12:53:00.134Z,69.43
2022-08-18T12:54:00.519Z,67.52
2022-08-18T12:55:00.067Z,65.50
2022-08-18T12:56:00.041Z,64.50
2022-08-18T12:57:00.046Z,64.93
2022-08-18T12:58:00.033Z,69.37
2022-08-18T12:59:00.038Z,64.39
2022-08-18T13:00:00.018Z,68.85
2022-08-18T13:01:00.025Z,63.35
2022-08-18T13:02:00.646Z,69.57
2022-08-18T13:03:00.006Z,69.69
2022-08-18T13:04:13.239Z,66.10
2022-08-18T13:05:01.159Z,62.61
2022-08-18T13:05:59.993Z,69.51
2022-08-18T13:07:01.998Z,63.54
2022-08-18T13:08:04.626Z,68.47
2022-08-18T13:08:59.966Z,65.86
2022-08-18T13:09:59.971Z,67.71
2022-08-18T13:10:59.969Z,71.92
2022-08-18T13:12:00.949Z,63.86
2022-08-18T13:12:59.914Z,66.87
2022-08-18T13:13:59.954Z,65.54
2022-08-18T13:14:59.936Z,67.72
2022-08-18T13:16:03.361Z,69.86
2022-08-18T13:16:59.921Z,67.71
2022-08-18T13:17:59.925Z,67.70
2022-08-18T13:18:59.896Z,70.26
2022-08-18T13:20:00.571Z,69.99
2022-08-18T13:20:59.907Z,67.72
2022-08-18T13:21:59.862Z,68.51
2022-08-18T13:22:59.865Z,69.31
2022-08-18T13:23:59.863Z,66.96
2022-08-18T13:24:59.848Z,68.62
2022-08-18T13:26:02.089Z,67.66
2022-08-18T13:26:59.834Z,69.86
2022-08-18T13:28:00.018Z,67.95
2022-08-18T13:28:59.813Z,64.13
2022-08-18T13:29:59.876Z,69.03
2022-08-18T13:30:59.792Z,67.75
2022-08-18T13:31:59.794Z,67.40